Time,TemperatureF,DewpointF,PressureIn,WindDirection,WindDirectionDegrees,WindSpeedMPH,WindSpeedGustMPH,Humidity,HourlyPrecipIn,Conditions,Clouds,dailyrainin,SolarRadiationWatts/m^2,SoftwareType,DateUTC
2013-05-27 00:00:00,62.6,61.1,30.08,West,270,0.0,1.0,95,0.00,CLR,,0.00,0.0,WeatherDisplay:10.37,2013-05-26 14:00:00,
2013-05-27 00:05:00,62.6,61.1,30.08,West,270,0.0,0.0,95,0.00,CLR,,0.00,0.0,WeatherDisplay:10.37,2013-05-26 14:05:00,
2013-05-27 00:10:00,62.6,61.1,30.08,West,270,0.0,0.0,95,0.00,CLR,,0.00,0.0,WeatherDisplay:10.37,2013-05-26 14:10:00,
2013-05-27 00:15:00,62.6,61.1,30.08,West,278,0.0,0.0,95,0.00,CLR,,0.00,0.0,WeatherDisplay:10.37,2013-05-26 14:15:00,
2013-05-27 00:20:00,62.6,61.1,30.08,WNW,302,0.0,1.0,95,0.00,CLR,,0.00,0.0,WeatherDisplay:10.37,2013-05-26 14:20:00,
2013-05-27 00:25:00,62.6,61.2,30.08,NW,315,0.0,2.0,95,0.00,CLR,,0.00,0.0,WeatherDisplay:10.37,2013-05-26 14:25:00,
2013-05-27 00:30:00,62.8,61.3,30.08,WNW,294,0.0,2.0,95,0.00,CLR,,0.00,0.0,WeatherDisplay:10.37,2013-05-26 14:30:00,
2013-05-27 00:35:00,62.8,61.6,30.07,West,270,0.0,2.0,96,0.00,CLR,,0.00,0.0,WeatherDisplay:10.37,2013-05-26 14:35:00,
2013-05-27 00:40:00,62.8,61.6,30.08,West,270,0.0,2.0,96,0.00,CLR,,0.00,0.0,WeatherDisplay:10.37,2013-05-26 14:40:00,
2013-05-27 00:45:00,62.8,61.6,30.08,West,270,1.0,3.0,96,0.00,CLR,,0.00,0.0,WeatherDisplay:10.37,2013-05-26 14:45:00,
2013-05-27 00:50:00,62.8,61.6,30.08,West,270,0.0,3.0,96,0.00,CLR,,0.00,0.0,WeatherDisplay:10.37,2013-05-26 14:50:00,
2013-05-27 00:55:00,63.0,61.9,30.08,WSW,250,1.0,2.0,96,0.00,CLR,,0.00,0.0,WeatherDisplay:10.37,2013-05-26 14:55:00,
2013-05-27 01:00:00,63.1,62.0,30.07,SW,217,0.0,2.0,96,0.00,CLR,,0.00,0.0,WeatherDisplay:10.37,2013-05-26 15:00:00,
2013-05-27 01:05:00,63.1,62.3,30.07,SW,236,1.0,3.0,97,0.00,CLR,,0.00,0.0,WeatherDisplay:10.37,2013-05-26 15:05:00,
2013-05-27 01:10:00,63.0,62.1,30.07,West,261,0.0,2.0,97,0.00,CLR,,0.00,0.0,WeatherDisplay:10.37,2013-05-26 15:10:00,
2013-05-27 01:15:00,63.1,62.3,30.07,West,259,0.0,1.0,97,0.00,CLR,,0.00,0.0,WeatherDisplay:10.37,2013-05-26 15:15:00,
2013-05-27 01:20:00,63.1,62.3,30.07,West,272,1.0,4.0,97,0.00,CLR,,0.00,0.0,WeatherDisplay:10.37,2013-05-26 15:20:00,
2013-05-27 01:25:00,63.3,62.5,30.07,NW,305,0.0,1.0,97,0.00,CLR,,0.00,0.0,WeatherDisplay:10.37,2013-05-26 15:25:00,
2013-05-27 01:30:00,63.2,62.4,30.08,WNW,294,1.0,3.0,97,0.00,CLR,,0.00,0.0,WeatherDisplay:10.37,2013-05-26 15:30:00,
2013-05-27 01:35:00,63.3,62.5,30.07,SSE,166,1.0,3.0,97,0.00,CLR,,0.00,0.0,WeatherDisplay:10.37,2013-05-26 15:35:00,
2013-05-27 01:40:00,63.2,62.3,30.07,SE,135,0.0,2.0,97,0.00,CLR,,0.00,0.0,WeatherDisplay:10.37,2013-05-26 15:40:00,
2013-05-27 01:45:00,63.3,62.5,30.06,SE,135,0.0,0.0,97,0.00,CLR,,0.00,0.0,WeatherDisplay:10.37,2013-05-26 15:45:00,
2013-05-27 01:50:00,63.3,62.5,30.07,SE,135,0.0,0.0,97,0.00,CLR,,0.00,0.0,WeatherDisplay:10.37,2013-05-26 15:50:00,
2013-05-27 01:55:00,63.5,62.6,30.06,SE,135,0.0,0.0,97,0.00,CLR,,0.00,0.0,WeatherDisplay:10.37,2013-05-26 15:55:00,
2013-05-27 02:00:00,63.5,62.6,30.06,SE,135,0.0,0.0,97,0.00,CLR,,0.00,0.0,WeatherDisplay:10.37,2013-05-26 16:00:00,
2013-05-27 02:05:00,63.7,62.8,30.06,SE,135,0.0,0.0,97,0.00,CLR,,0.00,0.0,WeatherDisplay:10.37,2013-05-26 16:05:00,
2013-05-27 02:10:00,63.7,62.8,30.06,SE,135,0.0,0.0,97,0.00,CLR,,0.00,0.0,WeatherDisplay:10.37,2013-05-26 16:10:00,
2013-05-27 02:15:00,63.7,62.8,30.06,SE,135,0.0,0.0,97,0.00,CLR,,0.00,0.0,WeatherDisplay:10.37,2013-05-26 16:15:00,
2013-05-27 02:20:00,63.9,63.0,30.05,SE,135,0.0,0.0,97,0.00,CLR,,0.00,0.0,WeatherDisplay:10.37,2013-05-26 16:20:00,
2013-05-27 02:25:00,63.9,63.0,30.05,SE,135,0.0,0.0,97,0.00,CLR,,0.00,0.0,WeatherDisplay:10.37,2013-05-26 16:25:00,
2013-05-27 02:30:00,64.0,63.2,30.06,SE,126,0.0,0.0,97,0.00,CLR,,0.00,0.0,WeatherDisplay:10.37,2013-05-26 16:30:00,
2013-05-27 02:35:00,64.2,63.3,30.05,NNE,19,0.0,0.0,97,0.00,CLR,,0.00,0.0,WeatherDisplay:10.37,2013-05-26 16:35:00,
2013-05-27 02:40:00,64.2,63.4,30.06,North,0,0.0,0.0,97,0.00,CLR,,0.00,0.0,WeatherDisplay:10.37,2013-05-26 16:40:00,
2013-05-27 02:45:00,64.2,63.4,30.05,North,0,0.0,0.0,97,0.00,CLR,,0.00,0.0,WeatherDisplay:10.37,2013-05-26 16:45:00,
2013-05-27 02:50:00,64.2,63.3,30.05,North,0,0.0,0.0,97,0.00,CLR,,0.00,0.0,WeatherDisplay:10.37,2013-05-26 16:50:00,
2013-05-27 02:55:00,64.0,63.2,30.05,North,0,0.0,0.0,97,0.00,CLR,,0.00,0.0,WeatherDisplay:10.37,2013-05-26 16:55:00,
2013-05-27 03:00:00,64.5,64.0,30.05,ESE,119,5.0,8.0,98,0.00,CLR,,0.00,0.0,WeatherDisplay:10.37,2013-05-26 17:00:00,
2013-05-27 03:05:00,65.2,64.6,30.05,SE,133,2.0,6.0,98,0.00,CLR,,0.00,0.0,WeatherDisplay:10.37,2013-05-26 17:05:00,
2013-05-27 03:10:00,65.8,65.0,30.05,ESE,112,5.0,8.0,97,0.00,CLR,,0.00,0.0,WeatherDisplay:10.37,2013-05-26 17:10:00,
2013-05-27 03:15:00,66.7,65.0,30.05,ENE,68,3.0,10.0,94,0.00,CLR,,0.00,0.0,WeatherDisplay:10.37,2013-05-26 17:15:00,
2013-05-27 03:20:00,66.9,64.5,30.05,NE,50,3.0,10.0,92,0.00,CLR,,0.00,0.0,WeatherDisplay:10.37,2013-05-26 17:20:00,
2013-05-27 03:25:00,67.3,63.9,30.05,ENE,72,6.0,13.0,89,0.00,CLR,,0.00,0.0,WeatherDisplay:10.37,2013-05-26 17:25:00,
2013-05-27 03:30:00,67.8,63.8,30.05,East,83,5.0,13.0,87,0.00,CLR,,0.00,0.0,WeatherDisplay:10.37,2013-05-26 17:30:00,
2013-05-27 03:35:00,67.8,63.5,30.05,ENE,63,3.0,8.0,86,0.00,CLR,,0.00,0.0,WeatherDisplay:10.37,2013-05-26 17:35:00,
2013-05-27 03:40:00,67.8,63.5,30.05,NE,45,6.0,12.0,86,0.00,CLR,,0.00,0.0,WeatherDisplay:10.37,2013-05-26 17:40:00,
2013-05-27 03:45:00,67.6,63.3,30.05,NE,49,3.0,6.0,86,0.00,CLR,,0.00,0.0,WeatherDisplay:10.37,2013-05-26 17:45:00,
2013-05-27 03:55:00,68.0,63.3,30.04,ENE,77,5.0,13.0,85,0.00,CLR,,0.00,0.0,WeatherDisplay:10.37,2013-05-26 17:55:00,
2013-05-27 04:00:00,68.0,63.0,30.04,ENE,77,5.0,9.0,84,0.00,CLR,,0.00,0.0,WeatherDisplay:10.37,2013-05-26 18:00:00,
2013-05-27 04:05:00,67.9,63.2,30.04,East,80,7.0,12.0,85,0.00,CLR,,0.00,0.0,WeatherDisplay:10.37,2013-05-26 18:05:00,
2013-05-27 04:10:00,68.0,63.0,30.04,ESE,106,6.0,12.0,84,0.00,CLR,,0.00,0.0,WeatherDisplay:10.37,2013-05-26 18:10:00,
2013-05-27 04:15:00,68.2,63.2,30.04,SE,131,6.0,11.0,84,0.00,CLR,,0.00,0.0,WeatherDisplay:10.37,2013-05-26 18:15:00,
2013-05-27 04:20:00,68.2,63.2,30.05,SE,131,7.0,9.0,84,0.00,CLR,,0.00,0.0,WeatherDisplay:10.37,2013-05-26 18:20:00,
2013-05-27 04:25:00,68.0,63.0,30.04,SE,132,7.0,8.0,84,0.00,CLR,,0.00,0.0,WeatherDisplay:10.37,2013-05-26 18:25:00,
2013-05-27 04:30:00,68.0,63.0,30.05,SE,132,3.0,8.0,84,0.00,CLR,,0.00,0.0,WeatherDisplay:10.37,2013-05-26 18:30:00,
2013-05-27 04:35:00,67.8,63.5,30.05,SE,135,2.0,5.0,86,0.00,CLR,,0.00,0.0,WeatherDisplay:10.37,2013-05-26 18:35:00,
2013-05-27 04:40:00,67.5,63.5,30.04,SE,130,3.0,8.0,87,0.00,CLR,,0.00,0.0,WeatherDisplay:10.37,2013-05-26 18:40:00,
2013-05-27 04:50:00,67.3,63.6,30.04,NE,44,3.0,6.0,88,0.00,CLR,,0.00,0.0,WeatherDisplay:10.37,2013-05-26 18:50:00,
2013-05-27 04:55:00,67.1,63.4,30.05,NE,39,2.0,6.0,88,0.00,CLR,,0.00,0.0,WeatherDisplay:10.37,2013-05-26 18:55:00,
2013-05-27 05:00:00,67.1,63.7,30.05,NE,49,1.0,5.0,89,0.00,CLR,,0.00,0.0,WeatherDisplay:10.37,2013-05-26 19:00:00,
2013-05-27 05:05:00,66.8,63.8,30.05,NE,48,3.0,6.0,90,0.00,CLR,,0.00,0.0,WeatherDisplay:10.37,2013-05-26 19:05:00,
2013-05-27 05:10:00,66.6,63.9,30.05,NE,49,3.0,8.0,91,0.00,CLR,,0.00,0.0,WeatherDisplay:10.37,2013-05-26 19:10:00,
2013-05-27 05:15:00,66.6,63.9,30.05,NE,49,3.0,9.0,91,0.00,CLR,,0.00,0.0,WeatherDisplay:10.37,2013-05-26 19:15:00,
2013-05-27 05:20:00,66.6,63.9,30.05,ENE,59,5.0,11.0,91,0.00,CLR,,0.00,0.0,WeatherDisplay:10.37,2013-05-26 19:20:00,
2013-05-27 05:25:00,66.9,63.9,30.06,East,83,6.0,8.0,90,0.00,CLR,,0.00,0.0,WeatherDisplay:10.37,2013-05-26 19:25:00,
2013-05-27 05:30:00,66.9,63.9,30.06,ENE,69,6.0,10.0,90,0.00,CLR,,0.00,0.0,WeatherDisplay:10.37,2013-05-26 19:30:00,
2013-05-27 05:35:00,66.9,63.9,30.06,ENE,69,6.0,9.0,90,0.00,CLR,,0.00,0.0,WeatherDisplay:10.37,2013-05-26 19:35:00,
2013-05-27 05:40:00,66.9,63.8,30.06,East,99,5.0,8.0,90,0.00,CLR,,0.00,0.0,WeatherDisplay:10.37,2013-05-26 19:40:00,
2013-05-27 05:45:00,66.6,63.5,30.06,SE,127,3.0,7.0,90,0.00,CLR,,0.00,0.0,WeatherDisplay:10.37,2013-05-26 19:45:00,
2013-05-27 05:50:00,66.3,63.6,30.06,SSE,155,3.0,7.0,91,0.00,CLR,,0.00,0.0,WeatherDisplay:10.37,2013-05-26 19:50:00,
2013-05-27 05:55:00,66.2,63.5,30.06,SSE,147,2.0,6.0,91,0.00,CLR,,0.00,0.0,WeatherDisplay:10.37,2013-05-26 19:55:00,
2013-05-27 06:00:00,65.8,63.5,30.06,SE,135,3.0,5.0,92,0.00,CLR,,0.00,0.0,WeatherDisplay:10.37,2013-05-26 20:00:00,
2013-05-27 06:05:00,65.8,63.5,30.07,SE,135,3.0,6.0,92,0.00,CLR,,0.00,0.0,WeatherDisplay:10.37,2013-05-26 20:05:00,
2013-05-27 06:15:00,66.2,63.2,30.07,SE,137,6.0,8.0,90,0.00,CLR,,0.00,0.0,WeatherDisplay:10.37,2013-05-26 20:15:00,
2013-05-27 06:20:00,66.6,63.2,30.06,East,100,6.0,11.0,89,0.00,CLR,,0.00,0.0,WeatherDisplay:10.37,2013-05-26 20:20:00,
2013-05-27 06:25:00,67.1,63.4,30.07,East,95,7.0,18.0,88,0.00,CLR,,0.00,0.0,WeatherDisplay:10.37,2013-05-26 20:25:00,
2013-05-27 06:30:00,67.1,63.4,30.07,East,95,7.0,13.0,88,0.00,CLR,,0.00,0.0,WeatherDisplay:10.37,2013-05-26 20:30:00,
2013-05-27 06:35:00,66.9,63.2,30.07,East,92,7.0,10.0,88,0.00,CLR,,0.00,0.0,WeatherDisplay:10.37,2013-05-26 20:35:00,
2013-05-27 06:40:00,66.6,63.2,30.08,East,90,3.0,6.0,89,0.00,CLR,,0.00,1.3,WeatherDisplay:10.37,2013-05-26 20:40:00,
2013-05-27 06:45:00,66.2,62.9,30.08,East,90,2.0,6.0,89,0.00,CLR,,0.00,2.9,WeatherDisplay:10.37,2013-05-26 20:45:00,
2013-05-27 06:50:00,66.2,63.2,30.08,ENE,78,2.0,6.0,90,0.00,CLR,,0.00,4.8,WeatherDisplay:10.37,2013-05-26 20:50:00,
2013-05-27 06:55:00,66.2,63.2,30.08,ENE,77,2.0,4.0,90,0.00,CLR,,0.00,6.1,WeatherDisplay:10.37,2013-05-26 20:55:00,
2013-05-27 07:00:00,66.4,63.4,30.08,East,88,2.0,5.0,90,0.00,BKN,,0.00,13.9,WeatherDisplay:10.37,2013-05-26 21:00:00,
2013-05-27 07:05:00,66.6,63.5,30.09,East,90,1.0,3.0,90,0.00,BKN,,0.00,25.1,WeatherDisplay:10.37,2013-05-26 21:05:00,
2013-05-27 07:10:00,66.9,63.8,30.09,East,87,5.0,8.0,90,0.00,SCT,,0.00,60.1,WeatherDisplay:10.37,2013-05-26 21:10:00,
2013-05-27 07:15:00,67.3,63.9,30.08,NE,55,3.0,8.0,89,0.00,SCT,,0.00,58.7,WeatherDisplay:10.37,2013-05-26 21:15:00,
2013-05-27 07:20:00,67.9,64.2,30.08,ENE,64,2.0,8.0,88,0.00,SCT,,0.00,51.4,WeatherDisplay:10.37,2013-05-26 21:20:00,
2013-05-27 07:25:00,68.4,64.0,30.09,ESE,115,5.0,7.0,86,0.00,CLR,,0.00,83.0,WeatherDisplay:10.37,2013-05-26 21:25:00,
2013-05-27 07:30:00,69.2,64.5,30.08,SE,144,5.0,8.0,85,0.00,CLR,,0.00,68.0,WeatherDisplay:10.37,2013-05-26 21:30:00,
2013-05-27 07:35:00,68.9,63.6,30.08,SE,139,8.0,15.0,83,0.00,CLR,,0.00,52.0,WeatherDisplay:10.37,2013-05-26 21:35:00,
2013-05-27 07:40:00,69.1,63.7,30.09,SE,142,15.0,17.0,83,0.00,CLR,,0.00,38.0,WeatherDisplay:10.37,2013-05-26 21:40:00,
2013-05-27 07:45:00,69.2,62.8,30.09,ESE,113,9.0,15.0,80,0.00,CLR,,0.00,23.0,WeatherDisplay:10.37,2013-05-26 21:45:00,
2013-05-27 07:50:00,69.8,62.6,30.09,East,83,8.0,20.0,78,0.00,CLR,,0.00,10.0,WeatherDisplay:10.37,2013-05-26 21:50:00,
2013-05-27 07:55:00,69.4,62.6,30.10,East,81,8.0,15.0,79,0.00,CLR,,0.00,132.1,WeatherDisplay:10.37,2013-05-26 21:55:00,
2013-05-27 08:00:00,69.4,63.0,30.10,East,85,8.0,16.0,80,0.00,OVC,,0.00,424.4,WeatherDisplay:10.37,2013-05-26 22:00:00,
2013-05-27 08:05:00,70.2,63.0,30.09,East,80,7.0,16.0,78,0.00,OVC,,0.00,263.1,WeatherDisplay:10.37,2013-05-26 22:05:00,
2013-05-27 08:10:00,70.2,62.6,30.10,East,81,8.0,16.0,77,0.00,OVC,,0.00,115.2,WeatherDisplay:10.37,2013-05-26 22:10:00,
2013-05-27 08:15:00,69.6,62.8,30.10,ESE,115,7.0,17.0,79,0.00,OVC,,0.00,178.7,WeatherDisplay:10.37,2013-05-26 22:15:00,
2013-05-27 08:20:00,69.6,63.2,30.10,SE,128,6.0,16.0,80,0.00,OVC,,0.00,169.2,WeatherDisplay:10.37,2013-05-26 22:20:00,
2013-05-27 08:25:00,69.6,63.2,30.10,ESE,116,13.0,17.0,80,0.00,OVC,,0.00,492.7,WeatherDisplay:10.37,2013-05-26 22:25:00,
2013-05-27 08:30:00,71.2,64.0,30.10,East,100,10.0,17.0,78,0.00,OVC,,0.00,505.5,WeatherDisplay:10.37,2013-05-26 22:30:00,
2013-05-27 08:35:00,71.6,62.9,30.10,East,90,7.0,20.0,74,0.00,OVC,,0.00,509.3,WeatherDisplay:10.37,2013-05-26 22:35:00,
2013-05-27 08:40:00,72.5,63.0,30.10,East,90,10.0,14.0,72,0.00,OVC,,0.00,526.4,WeatherDisplay:10.37,2013-05-26 22:40:00,
2013-05-27 08:45:00,72.8,62.8,30.11,East,87,9.0,17.0,71,0.00,OVC,,0.00,555.6,WeatherDisplay:10.37,2013-05-26 22:45:00,
2013-05-27 08:50:00,72.7,62.4,30.11,East,87,8.0,17.0,70,0.00,OVC,,0.00,576.2,WeatherDisplay:10.37,2013-05-26 22:50:00,
2013-05-27 08:55:00,72.9,62.9,30.11,East,88,9.0,18.0,71,0.00,OVC,,0.00,611.0,WeatherDisplay:10.37,2013-05-26 22:55:00,
2013-05-27 09:00:00,73.7,63.3,30.11,East,88,9.0,16.0,70,0.00,OVC,,0.00,640.6,WeatherDisplay:10.37,2013-05-26 23:00:00,
2013-05-27 09:05:00,73.9,62.6,30.11,East,93,12.0,16.0,68,0.00,OVC,,0.00,658.0,WeatherDisplay:10.37,2013-05-26 23:05:00,
2013-05-27 09:10:00,73.8,62.5,30.11,ESE,112,9.0,17.0,68,0.00,OVC,,0.00,676.2,WeatherDisplay:10.37,2013-05-26 23:10:00,
2013-05-27 09:15:00,73.6,62.4,30.11,ESE,111,9.0,16.0,68,0.00,OVC,,0.00,699.6,WeatherDisplay:10.37,2013-05-26 23:15:00,
2013-05-27 09:20:00,74.2,62.6,30.11,ESE,112,13.0,16.0,67,0.00,OVC,,0.00,721.8,WeatherDisplay:10.37,2013-05-26 23:20:00,
2013-05-27 09:25:00,74.8,62.7,30.11,ESE,105,8.0,13.0,66,0.00,OVC,,0.00,782.4,WeatherDisplay:10.37,2013-05-26 23:25:00,
2013-05-27 09:30:00,75.4,62.4,30.11,East,84,9.0,14.0,64,0.00,OVC,,0.00,823.2,WeatherDisplay:10.37,2013-05-26 23:30:00,
2013-05-27 09:40:00,76.1,63.5,30.12,East,95,8.0,16.0,65,0.00,OVC,,0.00,937.5,WeatherDisplay:10.37,2013-05-26 23:40:00,
2013-05-27 09:45:00,76.1,63.0,30.12,ENE,63,8.0,15.0,64,0.00,OVC,,0.00,980.9,WeatherDisplay:10.37,2013-05-26 23:45:00,
2013-05-27 09:50:00,75.8,63.2,30.12,East,84,12.0,15.0,65,0.00,OVC,,0.00,306.7,WeatherDisplay:10.37,2013-05-26 23:50:00,
2013-05-27 09:55:00,75.6,63.5,30.12,East,99,14.0,17.0,66,0.00,OVC,,0.00,1047.7,WeatherDisplay:10.37,2013-05-26 23:55:00,
2013-05-27 10:00:00,76.6,63.5,30.11,East,81,9.0,17.0,64,0.00,OVC,,0.00,1093.3,WeatherDisplay:10.37,2013-05-27 00:00:00,
2013-05-27 10:05:00,76.5,63.4,30.11,ENE,66,10.0,17.0,64,0.00,OVC,,0.00,1085.3,WeatherDisplay:10.37,2013-05-27 00:05:00,
2013-05-27 10:10:00,76.5,63.4,30.12,ENE,74,9.0,16.0,64,0.00,OVC,,0.00,1088.9,WeatherDisplay:10.37,2013-05-27 00:10:00,
2013-05-27 10:15:00,75.6,62.6,30.12,East,88,9.0,18.0,64,0.00,OVC,,0.00,973.3,WeatherDisplay:10.37,2013-05-27 00:15:00,
2013-05-27 10:20:00,75.3,62.3,30.11,East,88,12.0,17.0,64,0.00,OVC,,0.00,981.8,WeatherDisplay:10.37,2013-05-27 00:20:00,
2013-05-27 10:25:00,74.8,62.7,30.12,ESE,102,10.0,17.0,66,0.00,OVC,,0.00,990.1,WeatherDisplay:10.37,2013-05-27 00:25:00,
2013-05-27 10:30:00,76.1,63.0,30.12,ESE,113,8.0,16.0,64,0.00,OVC,,0.00,1029.7,WeatherDisplay:10.37,2013-05-27 00:30:00,
2013-05-27 10:35:00,75.8,61.9,30.11,ESE,114,13.0,17.0,62,0.00,OVC,,0.00,1080.2,WeatherDisplay:10.37,2013-05-27 00:35:00,
2013-05-27 10:40:00,75.7,61.8,30.11,ESE,118,13.0,20.0,62,0.00,OVC,,0.00,1102.2,WeatherDisplay:10.37,2013-05-27 00:40:00,
2013-05-27 10:45:00,75.5,61.5,30.11,ESE,118,13.0,20.0,62,0.00,OVC,,0.00,1139.3,WeatherDisplay:10.37,2013-05-27 00:45:00,
2013-05-27 10:50:00,75.5,62.0,30.11,ESE,102,12.0,21.0,63,0.00,OVC,,0.00,1074.1,WeatherDisplay:10.37,2013-05-27 00:50:00,
2013-05-27 10:55:00,75.8,61.9,30.11,East,93,5.0,17.0,62,0.00,OVC,,0.00,1084.3,WeatherDisplay:10.37,2013-05-27 00:55:00,
2013-05-27 11:00:00,76.5,62.1,30.11,East,88,8.0,17.0,61,0.00,OVC,,0.00,1177.5,WeatherDisplay:10.37,2013-05-27 01:00:00,
2013-05-27 11:05:00,77.4,62.4,30.11,East,93,7.0,17.0,60,0.00,OVC,,0.00,1191.7,WeatherDisplay:10.37,2013-05-27 01:05:00,
2013-05-27 11:10:00,77.6,62.1,30.11,ESE,105,7.0,14.0,59,0.00,OVC,,0.00,1137.7,WeatherDisplay:10.37,2013-05-27 01:10:00,
2013-05-27 11:15:00,77.8,62.3,30.11,SE,125,9.0,15.0,59,0.00,OVC,,0.00,1145.3,WeatherDisplay:10.37,2013-05-27 01:15:00,
2013-05-27 11:20:00,77.3,62.3,30.11,SE,131,7.0,15.0,60,0.00,OVC,,0.00,1181.8,WeatherDisplay:10.37,2013-05-27 01:20:00,
2013-05-27 11:30:00,77.0,61.6,30.10,East,94,10.0,17.0,59,0.00,OVC,,0.00,1176.1,WeatherDisplay:10.37,2013-05-27 01:30:00,
2013-05-27 11:35:00,76.9,61.9,30.11,East,98,15.0,22.0,60,0.00,OVC,,0.00,1180.2,WeatherDisplay:10.37,2013-05-27 01:35:00,
2013-05-27 11:40:00,76.8,61.9,30.10,ESE,114,13.0,18.0,60,0.00,OVC,,0.00,1194.4,WeatherDisplay:10.37,2013-05-27 01:40:00,
2013-05-27 11:45:00,76.8,62.3,30.10,SE,128,10.0,20.0,61,0.00,OVC,,0.00,1209.7,WeatherDisplay:10.37,2013-05-27 01:45:00,
2013-05-27 11:50:00,77.7,62.7,30.10,ESE,109,14.0,21.0,60,0.00,OVC,,0.00,748.7,WeatherDisplay:10.37,2013-05-27 01:50:00,
2013-05-27 11:55:00,77.3,63.2,30.10,ESE,109,8.0,20.0,62,0.00,OVC,,0.00,1255.2,WeatherDisplay:10.37,2013-05-27 01:55:00,
2013-05-27 12:00:00,77.1,61.6,30.10,ESE,115,12.0,20.0,59,0.00,OVC,,0.00,1221.6,WeatherDisplay:10.37,2013-05-27 02:00:00,
2013-05-27 12:05:00,77.7,62.2,30.10,ESE,111,10.0,15.0,59,0.00,OVC,,0.00,1223.5,WeatherDisplay:10.37,2013-05-27 02:05:00,
2013-05-27 12:10:00,78.4,62.4,30.10,ESE,102,14.0,18.0,58,0.00,OVC,,0.00,1238.6,WeatherDisplay:10.37,2013-05-27 02:10:00,
2013-05-27 12:15:00,77.4,62.4,30.10,ESE,106,8.0,20.0,60,0.00,OVC,,0.00,1343.9,WeatherDisplay:10.37,2013-05-27 02:15:00,
2013-05-27 12:20:00,77.4,62.4,30.09,ESE,109,12.0,20.0,60,0.00,OVC,,0.00,1254.0,WeatherDisplay:10.37,2013-05-27 02:20:00,
2013-05-27 12:25:00,77.4,62.9,30.09,ESE,109,10.0,20.0,61,0.00,OVC,,0.00,1229.5,WeatherDisplay:10.37,2013-05-27 02:25:00,
2013-05-27 12:30:00,77.4,60.9,30.09,ESE,120,12.0,18.0,57,0.00,OVC,,0.00,1221.3,WeatherDisplay:10.37,2013-05-27 02:30:00,
2013-05-27 12:35:00,77.4,61.9,30.08,SE,127,13.0,21.0,59,0.00,OVC,,0.00,1211.2,WeatherDisplay:10.37,2013-05-27 02:35:00,
2013-05-27 12:40:00,77.2,61.8,30.08,SE,125,12.0,20.0,59,0.00,OVC,,0.00,1216.3,WeatherDisplay:10.37,2013-05-27 02:40:00,
2013-05-27 12:45:00,77.7,61.8,30.08,ESE,107,10.0,20.0,58,0.00,OVC,,0.00,1221.5,WeatherDisplay:10.37,2013-05-27 02:45:00,
2013-05-27 12:50:00,78.9,61.9,30.08,ESE,106,14.0,20.0,56,0.00,OVC,,0.00,1326.0,WeatherDisplay:10.37,2013-05-27 02:50:00,
2013-05-27 12:55:00,78.3,62.3,30.08,ESE,120,8.0,20.0,58,0.00,OVC,,0.00,1296.5,WeatherDisplay:10.37,2013-05-27 02:55:00,
2013-05-27 13:00:00,78.6,61.6,30.08,East,98,12.0,18.0,56,0.00,OVC,,0.00,1291.7,WeatherDisplay:10.37,2013-05-27 03:00:00,
2013-05-27 13:05:00,78.3,61.8,30.08,East,93,12.0,18.0,57,0.00,OVC,,0.00,1263.4,WeatherDisplay:10.37,2013-05-27 03:05:00,
2013-05-27 13:10:00,79.0,62.4,30.07,ESE,113,9.0,16.0,57,0.00,OVC,,0.00,1246.0,WeatherDisplay:10.37,2013-05-27 03:10:00,
2013-05-27 13:15:00,78.4,62.0,30.07,SE,134,8.0,20.0,57,0.00,OVC,,0.00,1243.9,WeatherDisplay:10.37,2013-05-27 03:15:00,
2013-05-27 13:20:00,78.5,62.0,30.07,ESE,119,12.0,18.0,57,0.00,OVC,,0.00,1263.3,WeatherDisplay:10.37,2013-05-27 03:20:00,
2013-05-27 13:25:00,78.0,62.6,30.07,ESE,108,8.0,17.0,59,0.00,OVC,,0.00,1019.0,WeatherDisplay:10.37,2013-05-27 03:25:00,
2013-05-27 13:30:00,78.8,61.8,30.07,East,92,7.0,16.0,56,0.00,OVC,,0.00,1355.5,WeatherDisplay:10.37,2013-05-27 03:30:00,
2013-05-27 13:40:00,77.1,62.6,30.07,SE,128,12.0,16.0,61,0.00,OVC,,0.00,307.2,WeatherDisplay:10.37,2013-05-27 03:40:00,
2013-05-27 13:45:00,77.9,63.4,30.07,SE,134,6.0,16.0,61,0.00,OVC,,0.00,1217.4,WeatherDisplay:10.37,2013-05-27 03:45:00,
2013-05-27 13:50:00,79.3,62.3,30.07,SE,137,9.0,17.0,56,0.00,OVC,,0.00,1153.3,WeatherDisplay:10.37,2013-05-27 03:50:00,
2013-05-27 13:55:00,78.1,61.6,30.06,ESE,118,14.0,21.0,57,0.00,OVC,,0.00,1098.0,WeatherDisplay:10.37,2013-05-27 03:55:00,
2013-05-27 14:00:00,77.7,61.7,30.06,ESE,115,12.0,17.0,58,0.00,OVC,,0.00,1080.4,WeatherDisplay:10.37,2013-05-27 04:00:00,
2013-05-27 14:05:00,77.5,61.5,30.06,ESE,106,7.0,15.0,58,0.00,OVC,,0.00,1069.3,WeatherDisplay:10.37,2013-05-27 04:05:00,
2013-05-27 14:10:00,78.7,62.2,30.06,ESE,112,9.0,17.0,57,0.00,OVC,,0.00,946.1,WeatherDisplay:10.37,2013-05-27 04:10:00,
2013-05-27 14:15:00,78.6,62.1,30.06,SE,124,12.0,17.0,57,0.00,OVC,,0.00,1067.0,WeatherDisplay:10.37,2013-05-27 04:15:00,
2013-05-27 14:20:00,78.1,61.6,30.06,ESE,104,10.0,17.0,57,0.00,OVC,,0.00,874.5,WeatherDisplay:10.37,2013-05-27 04:20:00,
2013-05-27 14:25:00,77.7,62.7,30.06,ESE,107,8.0,17.0,60,0.00,OVC,,0.00,1093.1,WeatherDisplay:10.37,2013-05-27 04:25:00,
2013-05-27 14:30:00,78.3,63.3,30.06,ESE,122,7.0,18.0,60,0.00,OVC,,0.00,1006.6,WeatherDisplay:10.37,2013-05-27 04:30:00,
2013-05-27 14:35:00,78.5,63.0,30.06,SE,132,9.0,20.0,59,0.00,OVC,,0.00,1042.2,WeatherDisplay:10.37,2013-05-27 04:35:00,
2013-05-27 14:40:00,78.7,63.6,30.06,ESE,112,10.0,15.0,60,0.00,OVC,,0.00,983.5,WeatherDisplay:10.37,2013-05-27 04:40:00,
2013-05-27 14:45:00,78.3,62.8,30.06,East,98,9.0,18.0,59,0.00,OVC,,0.00,819.7,WeatherDisplay:10.37,2013-05-27 04:45:00,
2013-05-27 14:50:00,77.7,62.2,30.06,East,86,9.0,16.0,59,0.00,OVC,,0.00,1019.2,WeatherDisplay:10.37,2013-05-27 04:50:00,
2013-05-27 14:55:00,77.1,62.6,30.06,NNE,23,7.0,13.0,61,0.00,OVC,,0.00,361.9,WeatherDisplay:10.37,2013-05-27 04:55:00,
2013-05-27 15:00:00,76.8,63.7,30.06,ENE,58,6.0,13.0,64,0.00,OVC,,0.00,944.1,WeatherDisplay:10.37,2013-05-27 05:00:00,
2013-05-27 15:05:00,77.3,62.8,30.06,SE,135,10.0,15.0,61,0.00,OVC,,0.00,252.2,WeatherDisplay:10.37,2013-05-27 05:05:00,
2013-05-27 15:10:00,75.8,63.2,30.06,SE,139,8.0,15.0,65,0.00,OVC,,0.00,169.0,WeatherDisplay:10.37,2013-05-27 05:10:00,
2013-05-27 15:15:00,75.0,63.3,30.06,SSE,157,6.0,12.0,67,0.00,OVC,,0.00,144.0,WeatherDisplay:10.37,2013-05-27 05:15:00,
2013-05-27 15:20:00,74.3,62.6,30.06,SSE,159,9.0,17.0,67,0.00,OVC,,0.00,119.9,WeatherDisplay:10.37,2013-05-27 05:20:00,
2013-05-27 15:25:00,73.6,62.4,30.06,SSE,150,5.0,13.0,68,0.00,OVC,,0.00,133.8,WeatherDisplay:10.37,2013-05-27 05:25:00,
2013-05-27 15:30:00,73.9,63.0,30.06,SSE,154,7.0,10.0,69,0.00,OVC,,0.00,214.9,WeatherDisplay:10.37,2013-05-27 05:30:00,
2013-05-27 15:35:00,73.6,62.4,30.07,SSE,163,5.0,14.0,68,0.00,OVC,,0.00,170.1,WeatherDisplay:10.37,2013-05-27 05:35:00,
2013-05-27 15:40:00,73.9,63.1,30.07,SE,128,7.0,13.0,69,0.00,OVC,,0.00,155.8,WeatherDisplay:10.37,2013-05-27 05:40:00,
2013-05-27 15:45:00,73.5,62.7,30.07,NNE,15,9.0,15.0,69,0.00,OVC,,0.00,154.2,WeatherDisplay:10.37,2013-05-27 05:45:00,
2013-05-27 15:50:00,73.2,62.0,30.07,ENE,68,9.0,17.0,68,0.00,OVC,,0.00,139.6,WeatherDisplay:10.37,2013-05-27 05:50:00,
2013-05-27 15:55:00,72.9,62.1,30.07,ESE,104,7.0,14.0,69,0.00,OVC,,0.00,114.1,WeatherDisplay:10.37,2013-05-27 05:55:00,
2013-05-27 16:00:00,72.9,62.5,30.08,SE,142,9.0,13.0,70,0.00,CLR,,0.00,356.8,WeatherDisplay:10.37,2013-05-27 06:00:00,
2013-05-27 16:05:00,74.0,63.6,30.07,SE,146,13.0,18.0,70,0.00,CLR,,0.00,233.9,WeatherDisplay:10.37,2013-05-27 06:05:00,
2013-05-27 16:10:00,73.4,62.6,30.07,SE,134,10.0,20.0,69,0.00,CLR,,0.00,122.6,WeatherDisplay:10.37,2013-05-27 06:10:00,
2013-05-27 16:15:00,72.4,62.1,30.08,SE,130,14.0,21.0,70,0.00,CLR,,0.00,103.9,WeatherDisplay:10.37,2013-05-27 06:15:00,
2013-05-27 16:20:00,71.8,61.9,30.08,ESE,117,8.0,15.0,71,0.00,CLR,,0.00,106.1,WeatherDisplay:10.37,2013-05-27 06:20:00,
2013-05-27 16:25:00,71.4,62.3,30.08,ESE,116,10.0,16.0,73,0.00,CLR,,0.00,77.5,WeatherDisplay:10.37,2013-05-27 06:25:00,
2013-05-27 16:30:00,70.9,61.8,30.08,SE,132,9.0,13.0,73,0.00,CLR,,0.00,64.8,WeatherDisplay:10.37,2013-05-27 06:30:00,
2013-05-27 16:35:00,70.7,62.0,30.08,SE,124,10.0,14.0,74,0.00,CLR,,0.00,341.4,WeatherDisplay:10.37,2013-05-27 06:35:00,
2013-05-27 16:40:00,72.0,62.5,30.08,ESE,119,12.0,15.0,72,0.00,CLR,,0.00,335.0,WeatherDisplay:10.37,2013-05-27 06:40:00,
2013-05-27 16:45:00,72.9,62.1,30.08,ESE,118,13.0,16.0,69,0.00,CLR,,0.00,295.4,WeatherDisplay:10.37,2013-05-27 06:45:00,
2013-05-27 16:50:00,72.8,61.6,30.08,SE,125,12.0,17.0,68,0.00,CLR,,0.00,122.1,WeatherDisplay:10.37,2013-05-27 06:50:00,
2013-05-27 16:55:00,72.8,61.6,30.08,SE,131,8.0,16.0,68,0.00,CLR,,0.00,295.8,WeatherDisplay:10.37,2013-05-27 06:55:00,
2013-05-27 17:00:00,73.0,61.8,30.08,SE,133,8.0,14.0,68,0.00,CLR,,0.00,93.2,WeatherDisplay:10.37,2013-05-27 07:00:00,
2013-05-27 17:05:00,72.7,61.5,30.08,SE,132,8.0,13.0,68,0.00,CLR,,0.00,202.0,WeatherDisplay:10.37,2013-05-27 07:05:00,
2013-05-27 17:10:00,72.5,60.9,30.08,ESE,116,9.0,13.0,67,0.00,CLR,,0.00,106.9,WeatherDisplay:10.37,2013-05-27 07:10:00,
2013-05-27 17:15:00,71.8,61.1,30.08,ESE,104,7.0,9.0,69,0.00,CLR,,0.00,92.7,WeatherDisplay:10.37,2013-05-27 07:15:00,
2013-05-27 17:20:00,71.6,61.3,30.09,ESE,106,7.0,9.0,70,0.00,CLR,,0.00,101.9,WeatherDisplay:10.37,2013-05-27 07:20:00,
2013-05-27 17:25:00,71.1,61.2,30.09,SE,124,7.0,15.0,71,0.00,CLR,,0.00,31.8,WeatherDisplay:10.37,2013-05-27 07:25:00,
2013-05-27 17:30:00,70.3,60.9,30.09,SE,139,6.0,13.0,72,0.00,CLR,,0.00,25.8,WeatherDisplay:10.37,2013-05-27 07:30:00,
2013-05-27 17:35:00,69.8,60.7,30.09,SSE,153,3.0,8.0,73,0.00,CLR,,0.00,21.1,WeatherDisplay:10.37,2013-05-27 07:35:00,
2013-05-27 17:40:00,69.4,61.2,30.09,SE,141,3.0,6.0,75,0.00,CLR,,0.00,17.4,WeatherDisplay:10.37,2013-05-27 07:40:00,
2013-05-27 17:45:00,68.9,61.1,30.09,SE,132,6.0,7.0,76,0.00,CLR,,0.00,10.6,WeatherDisplay:10.37,2013-05-27 07:45:00,
2013-05-27 17:50:00,68.7,60.8,30.09,SE,139,3.0,6.0,76,0.00,CLR,,0.00,5.8,WeatherDisplay:10.37,2013-05-27 07:50:00,
2013-05-27 17:55:00,68.5,61.0,30.09,SSE,162,3.0,6.0,77,0.00,CLR,,0.00,2.0,WeatherDisplay:10.37,2013-05-27 07:55:00,
2013-05-27 18:00:00,68.2,60.7,30.09,SSE,152,3.0,6.0,77,0.00,CLR,,0.00,0.0,WeatherDisplay:10.37,2013-05-27 08:00:00,
2013-05-27 18:05:00,67.9,61.1,30.09,SSE,158,2.0,6.0,79,0.00,CLR,,0.00,0.0,WeatherDisplay:10.37,2013-05-27 08:05:00,
2013-05-27 18:10:00,67.3,60.9,30.10,SE,146,1.0,5.0,80,0.00,CLR,,0.00,0.0,WeatherDisplay:10.37,2013-05-27 08:10:00,
2013-05-27 18:15:00,66.7,60.7,30.10,SE,135,2.0,3.0,81,0.00,CLR,,0.00,0.0,WeatherDisplay:10.37,2013-05-27 08:15:00,
2013-05-27 18:20:00,66.7,61.1,30.10,ESE,117,1.0,3.0,82,0.00,CLR,,0.00,0.0,WeatherDisplay:10.37,2013-05-27 08:20:00,
2013-05-27 18:25:00,66.3,60.7,30.10,ESE,117,0.0,2.0,82,0.00,CLR,,0.00,0.0,WeatherDisplay:10.37,2013-05-27 08:25:00,
2013-05-27 18:30:00,65.5,60.6,30.10,SE,135,0.0,1.0,84,0.00,CLR,,0.00,0.0,WeatherDisplay:10.37,2013-05-27 08:30:00,
2013-05-27 18:35:00,65.1,60.5,30.10,SE,135,0.0,2.0,85,0.00,CLR,,0.00,0.0,WeatherDisplay:10.37,2013-05-27 08:35:00,
2013-05-27 18:40:00,64.4,60.4,30.10,SE,135,0.0,2.0,87,0.00,CLR,,0.00,0.0,WeatherDisplay:10.37,2013-05-27 08:40:00,
2013-05-27 18:50:00,63.3,59.1,30.11,SE,133,1.0,2.0,86,0.00,CLR,,0.00,0.0,WeatherDisplay:10.37,2013-05-27 08:50:00,
2013-05-27 18:55:00,63.2,59.6,30.11,ESE,113,0.0,2.0,88,0.00,CLR,,0.00,0.0,WeatherDisplay:10.37,2013-05-27 08:55:00,
2013-05-27 19:00:00,62.8,59.5,30.11,East,90,0.0,1.0,89,0.00,CLR,,0.00,0.0,WeatherDisplay:10.37,2013-05-27 09:00:00,
2013-05-27 19:05:00,62.6,59.3,30.11,East,90,0.0,0.0,89,0.00,CLR,,0.00,0.0,WeatherDisplay:10.37,2013-05-27 09:05:00,
2013-05-27 19:10:00,62.6,59.6,30.11,East,90,0.0,1.0,90,0.00,CLR,,0.00,0.0,WeatherDisplay:10.37,2013-05-27 09:10:00,
2013-05-27 19:15:00,62.4,60.1,30.12,WSW,251,0.0,1.0,92,0.00,CLR,,0.00,0.0,WeatherDisplay:10.37,2013-05-27 09:15:00,
2013-05-27 19:20:00,62.1,59.7,30.12,South,169,0.0,3.0,92,0.00,CLR,,0.00,0.0,WeatherDisplay:10.37,2013-05-27 09:20:00,
2013-05-27 19:25:00,61.7,59.4,30.12,South,188,0.0,0.0,92,0.00,CLR,,0.00,0.0,WeatherDisplay:10.37,2013-05-27 09:25:00,
2013-05-27 19:30:00,61.5,59.2,30.12,SW,225,0.0,0.0,92,0.00,CLR,,0.00,0.0,WeatherDisplay:10.37,2013-05-27 09:30:00,
2013-05-27 19:35:00,61.5,59.5,30.12,SW,225,0.0,0.0,93,0.00,CLR,,0.00,0.0,WeatherDisplay:10.37,2013-05-27 09:35:00,
2013-05-27 19:40:00,61.5,59.5,30.12,SW,225,0.0,0.0,93,0.00,CLR,,0.00,0.0,WeatherDisplay:10.37,2013-05-27 09:40:00,
2013-05-27 19:45:00,61.5,59.8,30.12,SW,225,0.0,0.0,94,0.00,CLR,,0.00,0.0,WeatherDisplay:10.37,2013-05-27 09:45:00,
2013-05-27 19:50:00,61.3,59.6,30.12,SW,225,0.0,1.0,94,0.00,CLR,,0.00,0.0,WeatherDisplay:10.37,2013-05-27 09:50:00,
2013-05-27 19:55:00,61.7,60.0,30.13,SW,225,0.0,0.0,94,0.00,CLR,,0.00,0.0,WeatherDisplay:10.37,2013-05-27 09:55:00,
2013-05-27 20:00:00,61.5,59.8,30.13,WSW,257,0.0,0.0,94,0.00,CLR,,0.00,0.0,WeatherDisplay:10.37,2013-05-27 10:00:00,
2013-05-27 20:05:00,61.2,59.4,30.13,NE,51,0.0,2.0,94,0.00,CLR,,0.00,0.0,WeatherDisplay:10.37,2013-05-27 10:05:00,
2013-05-27 20:10:00,61.0,59.3,30.13,East,89,0.0,0.0,94,0.00,CLR,,0.00,0.0,WeatherDisplay:10.37,2013-05-27 10:10:00,
2013-05-27 20:15:00,61.2,59.4,30.13,East,80,1.0,2.0,94,0.00,CLR,,0.00,0.0,WeatherDisplay:10.37,2013-05-27 10:15:00,
2013-05-27 20:20:00,61.0,59.2,30.13,NNE,27,0.0,2.0,94,0.00,CLR,,0.00,0.0,WeatherDisplay:10.37,2013-05-27 10:20:00,
2013-05-27 20:25:00,61.0,59.2,30.13,SW,235,1.0,2.0,94,0.00,CLR,,0.00,0.0,WeatherDisplay:10.37,2013-05-27 10:25:00,
2013-05-27 20:30:00,61.1,59.7,30.13,SSW,203,1.0,3.0,95,0.00,CLR,,0.00,0.0,WeatherDisplay:10.37,2013-05-27 10:30:00,
2013-05-27 20:35:00,61.9,60.4,30.13,South,185,0.0,2.0,95,0.00,CLR,,0.00,0.0,WeatherDisplay:10.37,2013-05-27 10:35:00,
2013-05-27 20:40:00,61.9,60.1,30.14,South,180,0.0,0.0,94,0.00,CLR,,0.00,0.0,WeatherDisplay:10.37,2013-05-27 10:40:00,
2013-05-27 20:45:00,61.5,59.5,30.13,SSW,203,0.0,0.0,93,0.00,CLR,,0.00,0.0,WeatherDisplay:10.37,2013-05-27 10:45:00,
2013-05-27 20:50:00,61.2,59.1,30.14,West,270,0.0,0.0,93,0.00,CLR,,0.00,0.0,WeatherDisplay:10.37,2013-05-27 10:50:00,
2013-05-27 20:55:00,61.2,59.1,30.13,WSW,237,0.0,0.0,93,0.00,CLR,,0.00,0.0,WeatherDisplay:10.37,2013-05-27 10:55:00,
2013-05-27 21:00:00,60.8,58.8,30.13,SW,225,0.0,0.0,93,0.00,CLR,,0.00,0.0,WeatherDisplay:10.37,2013-05-27 11:00:00,
2013-05-27 21:05:00,60.4,58.7,30.13,SW,236,0.0,0.0,94,0.00,CLR,,0.00,0.0,WeatherDisplay:10.37,2013-05-27 11:05:00,
2013-05-27 21:10:00,60.6,59.2,30.14,South,185,0.0,3.0,95,0.00,CLR,,0.00,0.0,WeatherDisplay:10.37,2013-05-27 11:10:00,
2013-05-27 21:15:00,60.8,59.1,30.14,East,94,0.0,0.0,94,0.00,CLR,,0.00,0.0,WeatherDisplay:10.37,2013-05-27 11:15:00,
2013-05-27 21:20:00,60.5,59.0,30.14,East,90,0.0,0.0,95,0.00,CLR,,0.00,0.0,WeatherDisplay:10.37,2013-05-27 11:20:00,
2013-05-27 21:25:00,60.3,58.8,30.14,East,90,0.0,0.0,95,0.00,CLR,,0.00,0.0,WeatherDisplay:10.37,2013-05-27 11:25:00,
2013-05-27 21:30:00,59.9,58.5,30.14,East,90,0.0,0.0,95,0.00,CLR,,0.00,0.0,WeatherDisplay:10.37,2013-05-27 11:30:00,
2013-05-27 21:35:00,59.5,58.1,30.14,NE,49,0.0,0.0,95,0.00,CLR,,0.00,0.0,WeatherDisplay:10.37,2013-05-27 11:35:00,
2013-05-27 21:40:00,59.4,58.2,30.14,North,4,0.0,0.0,96,0.00,CLR,,0.00,0.0,WeatherDisplay:10.37,2013-05-27 11:40:00,
2013-05-27 21:45:00,59.2,58.1,30.14,North,0,0.0,0.0,96,0.00,CLR,,0.00,0.0,WeatherDisplay:10.37,2013-05-27 11:45:00,
2013-05-27 21:50:00,59.0,57.9,30.14,North,0,0.0,0.0,96,0.00,CLR,,0.00,0.0,WeatherDisplay:10.37,2013-05-27 11:50:00,
2013-05-27 21:55:00,59.0,58.1,30.14,North,0,0.0,0.0,97,0.00,CLR,,0.00,0.0,WeatherDisplay:10.37,2013-05-27 11:55:00,
2013-05-27 22:00:00,58.3,57.7,30.14,North,0,0.0,0.0,98,0.00,CLR,,0.00,0.0,WeatherDisplay:10.37,2013-05-27 12:00:00,
2013-05-27 22:05:00,58.1,57.5,30.14,North,0,0.0,0.0,98,0.00,CLR,,0.00,0.0,WeatherDisplay:10.37,2013-05-27 12:05:00,
2013-05-27 22:10:00,58.3,57.7,30.14,North,0,0.0,0.0,98,0.00,CLR,,0.00,0.0,WeatherDisplay:10.37,2013-05-27 12:10:00,
2013-05-27 22:15:00,58.1,57.5,30.14,South,180,2.0,4.0,98,0.00,CLR,,0.00,0.0,WeatherDisplay:10.37,2013-05-27 12:15:00,
2013-05-27 22:20:00,57.7,57.2,30.14,South,180,0.0,2.0,98,0.00,CLR,,0.00,0.0,WeatherDisplay:10.37,2013-05-27 12:20:00,
2013-05-27 22:25:00,57.8,57.3,30.14,South,180,0.0,0.0,98,0.00,CLR,,0.00,0.0,WeatherDisplay:10.37,2013-05-27 12:25:00,
2013-05-27 22:30:00,58.1,57.8,30.14,South,180,0.0,0.0,99,0.00,CLR,,0.00,0.0,WeatherDisplay:10.37,2013-05-27 12:30:00,
2013-05-27 22:35:00,58.1,57.8,30.14,South,180,0.0,0.0,99,0.00,CLR,,0.00,0.0,WeatherDisplay:10.37,2013-05-27 12:35:00,
2013-05-27 22:40:00,57.8,57.5,30.13,North,0,0.0,0.0,99,0.00,CLR,,0.00,0.0,WeatherDisplay:10.37,2013-05-27 12:40:00,
2013-05-27 22:45:00,57.7,57.5,30.14,North,0,0.0,0.0,99,0.00,CLR,,0.00,0.0,WeatherDisplay:10.37,2013-05-27 12:45:00,
2013-05-27 22:50:00,57.6,57.3,30.14,North,0,0.0,0.0,99,0.00,CLR,,0.00,0.0,WeatherDisplay:10.37,2013-05-27 12:50:00,
2013-05-27 22:55:00,57.4,57.1,30.14,North,0,0.0,0.0,99,0.00,CLR,,0.00,0.0,WeatherDisplay:10.37,2013-05-27 12:55:00,
2013-05-27 23:00:00,57.0,56.7,30.14,North,0,1.0,2.0,99,0.00,CLR,,0.00,0.0,WeatherDisplay:10.37,2013-05-27 13:00:00,
2013-05-27 23:05:00,56.8,56.6,30.14,North,0,0.0,1.0,99,0.00,CLR,,0.00,0.0,WeatherDisplay:10.37,2013-05-27 13:05:00,
2013-05-27 23:10:00,57.3,57.0,30.14,North,0,0.0,0.0,99,0.00,CLR,,0.00,0.0,WeatherDisplay:10.37,2013-05-27 13:10:00,
2013-05-27 23:15:00,57.9,57.6,30.13,North,0,0.0,1.0,99,0.00,CLR,,0.00,0.0,WeatherDisplay:10.37,2013-05-27 13:15:00,
2013-05-27 23:20:00,58.4,58.2,30.13,North,0,0.0,1.0,99,0.00,CLR,,0.00,0.0,WeatherDisplay:10.37,2013-05-27 13:20:00,
2013-05-27 23:25:00,58.9,58.6,30.13,North,0,0.0,0.0,99,0.00,CLR,,0.00,0.0,WeatherDisplay:10.37,2013-05-27 13:25:00,
2013-05-27 23:30:00,58.6,58.4,30.13,North,0,0.0,0.0,99,0.00,CLR,,0.00,0.0,WeatherDisplay:10.37,2013-05-27 13:30:00,
2013-05-27 23:35:00,58.4,58.1,30.13,North,0,0.0,0.0,99,0.00,CLR,,0.00,0.0,WeatherDisplay:10.37,2013-05-27 13:35:00,
2013-05-27 23:40:00,57.7,57.5,30.13,North,0,0.0,0.0,99,0.00,CLR,,0.00,0.0,WeatherDisplay:10.37,2013-05-27 13:40:00,
2013-05-27 23:45:00,57.3,57.1,30.13,North,0,0.0,0.0,99,0.00,CLR,,0.00,0.0,WeatherDisplay:10.37,2013-05-27 13:45:00,
2013-05-27 23:50:00,56.7,56.5,30.13,North,0,0.0,0.0,99,0.00,CLR,,0.00,0.0,WeatherDisplay:10.37,2013-05-27 13:50:00,
2013-05-27 23:55:00,56.5,56.2,30.13,North,0,0.0,0.0,99,0.00,CLR,,0.00,0.0,WeatherDisplay:10.37,2013-05-27 13:55:00,